createdAt,value
2023-07-16T00:04:47.061Z,90.22
2023-07-16T00:09:48.686Z,90.60
2023-07-16T00:14:50.391Z,90.16
2023-07-16T00:19:51.933Z,90.34
2023-07-16T00:24:53.393Z,91.04
2023-07-16T00:29:55.075Z,91.21
2023-07-16T00:34:56.544Z,91.35
2023-07-16T00:39:58.036Z,91.24
2023-07-16T00:44:59.665Z,90.58
2023-07-16T00:50:01.176Z,91.88
2023-07-16T00:55:03.451Z,92.27
2023-07-16T01:00:05.448Z,90.61
2023-07-16T01:05:07.223Z,92.48
2023-07-16T01:10:09.508Z,91.64
2023-07-16T01:15:11.606Z,91.15
2023-07-16T01:20:13.454Z,91.22
2023-07-16T01:25:33.354Z,89.43
2023-07-16T01:30:39.107Z,90.57
2023-07-16T01:35:41.848Z,90.96
2023-07-16T01:40:43.458Z,90.43
2023-07-16T01:45:45.779Z,90.64
2023-07-16T01:50:47.285Z,91.39
2023-07-16T01:55:48.977Z,91.86
2023-07-16T02:00:53.351Z,92.41
2023-07-16T02:05:54.880Z,93.07
2023-07-16T02:10:56.390Z,92.53
2023-07-16T02:15:58.028Z,93.65
2023-07-16T02:20:59.747Z,93.99
2023-07-16T02:26:02.109Z,93.68
2023-07-16T02:31:04.230Z,93.03
2023-07-16T02:36:06.005Z,93.68
2023-07-16T02:41:07.442Z,93.20
2023-07-16T02:46:08.939Z,92.18
2023-07-16T02:51:10.560Z,90.71
2023-07-16T02:56:12.585Z,90.04
2023-07-16T03:01:15.274Z,89.74
2023-07-16T03:06:19.330Z,90.74
2023-07-16T03:11:22.927Z,90.27
2023-07-16T03:16:24.677Z,89.70
2023-07-16T03:21:26.698Z,89.63
2023-07-16T03:26:28.308Z,89.57
2023-07-16T03:31:29.912Z,89.91
2023-07-16T03:36:32.000Z,88.86
2023-07-16T03:41:33.451Z,89.35
2023-07-16T03:46:35.020Z,91.16
2023-07-16T03:51:36.669Z,91.50
2023-07-16T03:56:38.414Z,90.26
2023-07-16T04:01:40.221Z,88.81
2023-07-16T04:06:41.848Z,89.56
2023-07-16T04:11:43.283Z,88.26
2023-07-16T04:16:44.810Z,88.51
2023-07-16T04:21:46.278Z,87.26
2023-07-16T04:26:47.709Z,87.52
2023-07-16T04:31:49.316Z,87.75
2023-07-16T04:36:50.838Z,88.29
2023-07-16T04:41:52.243Z,88.55
2023-07-16T04:46:53.778Z,89.05
2023-07-16T04:51:55.438Z,88.99
2023-07-16T04:56:56.857Z,87.63
2023-07-16T05:01:58.711Z,86.02
2023-07-16T05:07:00.247Z,86.27
2023-07-16T05:12:01.663Z,85.52
2023-07-16T05:17:03.336Z,83.42
2023-07-16T05:22:05.268Z,82.80
2023-07-16T05:27:06.858Z,81.38
2023-07-16T05:32:09.052Z,81.60
2023-07-16T05:37:10.606Z,80.49
2023-07-16T05:42:12.073Z,78.08
2023-07-16T05:47:13.517Z,79.27
2023-07-16T05:52:15.080Z,78.10
2023-07-16T05:57:16.490Z,78.26
2023-07-16T06:02:18.047Z,75.39
2023-07-16T06:07:19.760Z,73.94
2023-07-16T06:12:21.179Z,72.25
2023-07-16T06:17:24.823Z,70.94
2023-07-16T06:22:26.742Z,70.22
2023-07-16T06:27:28.923Z,68.43
2023-07-16T06:32:30.379Z,63.82
2023-07-16T06:37:32.134Z,63.71
2023-07-16T06:42:33.685Z,61.38
2023-07-16T06:47:35.186Z,58.98
2023-07-16T06:52:36.937Z,56.62
2023-07-16T06:57:38.568Z,54.37
2023-07-16T07:02:40.196Z,49.92
2023-07-16T07:07:41.769Z,48.98
2023-07-16T07:12:43.273Z,51.86
2023-07-16T07:17:47.349Z,50.29
2023-07-16T07:22:49.078Z,44.54
2023-07-16T07:27:50.744Z,47.21
2023-07-16T07:32:52.215Z,44.53
2023-07-16T07:37:54.078Z,45.99
2023-07-16T07:42:55.468Z,43.23
2023-07-16T07:47:57.164Z,45.92
2023-07-16T07:52:58.644Z,43.54
2023-07-16T07:58:00.747Z,43.54
2023-07-16T08:03:02.312Z,41.22
2023-07-16T08:08:06.435Z,41.27
2023-07-16T08:13:08.346Z,42.20
2023-07-16T08:18:10.829Z,40.93
2023-07-16T08:23:13.170Z,43.20
2023-07-16T08:28:14.692Z,39.49
2023-07-16T08:33:16.339Z,39.64
2023-07-16T08:38:17.988Z,37.18
2023-07-16T08:43:21.429Z,37.25
2023-07-16T08:48:23.592Z,35.88
2023-07-16T08:53:25.082Z,35.05
2023-07-16T08:58:26.604Z,33.68
2023-07-16T09:03:28.755Z,34.03
2023-07-16T09:08:30.257Z,31.42
2023-07-16T09:13:31.872Z,35.16
2023-07-16T09:18:34.024Z,35.97
2023-07-16T09:23:36.000Z,33.73
2023-07-16T09:28:37.744Z,35.62
2023-07-16T09:33:39.549Z,35.29
2023-07-16T09:38:45.636Z,36.01
2023-07-16T09:43:47.476Z,38.80
2023-07-16T09:48:49.153Z,32.50
2023-07-16T09:53:51.978Z,36.22
2023-07-16T09:58:54.846Z,36.02
2023-07-16T10:03:57.699Z,37.33
2023-07-16T10:08:59.403Z,31.36
2023-07-16T10:14:04.922Z,36.99
2023-07-16T10:19:06.486Z,35.40
2023-07-16T10:24:17.979Z,35.43
2023-07-16T10:29:19.465Z,33.62
2023-07-16T10:34:24.007Z,36.75
2023-07-16T10:39:25.502Z,39.26
2023-07-16T10:44:28.587Z,38.79
2023-07-16T10:49:30.340Z,38.91
2023-07-16T10:54:32.027Z,40.48
2023-07-16T10:59:36.890Z,39.75
2023-07-16T11:04:38.751Z,39.40
2023-07-16T11:10:06.911Z,38.61
2023-07-16T11:15:11.931Z,38.21
2023-07-16T11:20:13.802Z,39.17
2023-07-16T11:25:15.773Z,37.39
2023-07-16T11:30:24.386Z,38.63
2023-07-16T11:35:26.921Z,39.10
2023-07-16T11:40:28.399Z,39.41
2023-07-16T11:45:29.882Z,37.81
2023-07-16T11:50:32.654Z,38.11
2023-07-16T11:55:35.031Z,38.08
2023-07-16T12:00:36.823Z,37.92
2023-07-16T12:05:51.669Z,39.29
2023-07-16T12:10:55.032Z,37.54
2023-07-16T12:15:56.577Z,36.67
2023-07-16T12:20:58.084Z,36.03
2023-07-16T12:25:59.724Z,34.05
2023-07-16T12:31:01.242Z,35.36
2023-07-16T12:36:02.723Z,36.85
2023-07-16T12:41:04.365Z,35.49
2023-07-16T12:46:08.383Z,35.80
2023-07-16T12:51:09.957Z,36.69
2023-07-16T12:56:11.483Z,35.58
2023-07-16T13:01:13.103Z,39.79
2023-07-16T13:06:14.780Z,37.58
2023-07-16T13:11:16.491Z,37.21
2023-07-16T13:16:18.342Z,37.51
2023-07-16T13:21:20.147Z,36.96
2023-07-16T13:26:21.850Z,35.72
2023-07-16T13:31:23.488Z,37.18
2023-07-16T13:36:25.083Z,37.72
2023-07-16T13:41:26.689Z,38.82
2023-07-16T13:46:28.293Z,39.40
2023-07-16T13:51:29.777Z,36.09
2023-07-16T13:56:31.450Z,36.53
2023-07-16T14:01:33.077Z,39.30
2023-07-16T14:06:35.132Z,36.39
2023-07-16T14:11:36.617Z,35.04
2023-07-16T14:16:38.172Z,36.52
2023-07-16T14:21:40.196Z,37.25
2023-07-16T14:26:41.832Z,36.45
2023-07-16T14:31:43.329Z,35.29
2023-07-16T14:36:44.806Z,37.26
2023-07-16T14:41:46.669Z,35.90
2023-07-16T14:46:48.295Z,37.34
2023-07-16T14:51:49.886Z,37.83
2023-07-16T14:56:51.348Z,37.10
2023-07-16T15:01:52.885Z,37.44
2023-07-16T15:06:54.414Z,36.57
2023-07-16T15:11:56.058Z,36.64
2023-07-16T15:16:57.763Z,37.32
2023-07-16T15:21:59.323Z,37.15
2023-07-16T15:27:00.819Z,35.83
2023-07-16T15:32:03.340Z,34.71
2023-07-16T15:37:05.188Z,37.74
2023-07-16T15:42:19.277Z,38.30
2023-07-16T15:47:20.854Z,37.93
2023-07-16T15:52:26.424Z,38.42
2023-07-16T15:57:28.528Z,38.59
2023-07-16T16:02:30.012Z,39.33
2023-07-16T16:07:31.560Z,37.91
2023-07-16T16:12:33.379Z,39.68
2023-07-16T16:17:35.211Z,39.11
2023-07-16T16:22:36.961Z,39.23
2023-07-16T16:27:38.683Z,39.29
2023-07-16T16:32:41.225Z,38.94
2023-07-16T16:37:42.921Z,40.31
2023-07-16T16:42:44.886Z,39.69
2023-07-16T16:47:46.390Z,38.74
2023-07-16T16:52:48.028Z,38.49
2023-07-16T16:57:49.600Z,37.51
2023-07-16T17:02:51.203Z,37.37
2023-07-16T17:07:52.823Z,38.15
2023-07-16T17:12:54.894Z,38.41
2023-07-16T17:17:59.908Z,39.99
2023-07-16T17:23:01.971Z,38.80
2023-07-16T17:28:03.726Z,38.95
2023-07-16T17:33:08.744Z,39.31
2023-07-16T17:38:10.587Z,39.64
2023-07-16T17:43:15.474Z,39.37
2023-07-16T17:48:17.907Z,39.22
2023-07-16T17:53:19.688Z,40.03
2023-07-16T17:58:21.541Z,40.76
2023-07-16T18:03:23.213Z,40.69
2023-07-16T18:08:25.130Z,41.19
2023-07-16T18:13:26.688Z,41.22
2023-07-16T18:18:31.901Z,41.11
2023-07-16T18:23:34.450Z,41.35
2023-07-16T18:28:36.587Z,41.46
2023-07-16T18:33:38.464Z,41.47
2023-07-16T18:38:40.453Z,42.12
2023-07-16T18:43:42.986Z,41.52
2023-07-16T18:48:45.146Z,42.02
2023-07-16T19:10:44.760Z,43.63
2023-07-16T19:15:52.985Z,43.99
2023-07-16T19:20:57.616Z,44.75
2023-07-16T19:26:16.583Z,44.56
2023-07-16T19:31:21.964Z,44.96
2023-07-16T19:36:29.129Z,45.34
2023-07-16T19:41:31.743Z,45.79
2023-07-16T19:46:33.641Z,46.02
2023-07-16T19:51:35.371Z,45.48
2023-07-16T19:56:36.948Z,45.71
2023-07-16T20:01:38.823Z,45.47
2023-07-16T20:06:45.654Z,46.37
2023-07-16T20:11:56.796Z,47.02
2023-07-16T20:16:58.520Z,46.92
2023-07-16T20:22:00.290Z,46.89
2023-07-16T20:27:02.361Z,47.11
2023-07-16T20:32:07.538Z,47.21
2023-07-16T20:37:09.408Z,47.23
2023-07-16T20:42:11.645Z,47.56
2023-07-16T20:47:13.183Z,47.90
2023-07-16T20:52:14.779Z,47.55
2023-07-16T20:57:16.502Z,47.67
2023-07-16T21:02:18.947Z,47.74
2023-07-16T21:07:20.606Z,48.24
2023-07-16T21:12:22.348Z,47.94
2023-07-16T21:17:24.874Z,48.84
2023-07-16T21:22:29.665Z,49.13
2023-07-16T21:27:40.694Z,49.92
2023-07-16T21:32:42.419Z,50.18
2023-07-16T21:37:45.028Z,51.58
2023-07-16T21:42:46.602Z,51.65
2023-07-16T21:47:48.307Z,52.71
2023-07-16T21:52:51.939Z,52.95
2023-07-16T21:57:53.795Z,53.52
2023-07-16T22:02:55.863Z,54.76
2023-07-16T22:07:57.597Z,55.20
2023-07-16T22:12:59.583Z,55.75
2023-07-16T22:18:01.997Z,55.88
2023-07-16T22:23:03.737Z,56.89
2023-07-16T22:28:06.758Z,58.01
2023-07-16T22:33:11.361Z,58.42
2023-07-16T22:38:15.673Z,58.69
2023-07-16T22:43:18.203Z,59.59
2023-07-16T22:48:19.876Z,60.30
2023-07-16T22:53:21.920Z,59.77
2023-07-16T22:58:23.615Z,61.25
2023-07-16T23:03:25.437Z,61.66
2023-07-16T23:08:27.050Z,62.00
2023-07-16T23:13:30.007Z,63.00
2023-07-16T23:18:32.080Z,64.69
2023-07-16T23:23:34.125Z,65.09
2023-07-16T23:28:35.891Z,66.43
2023-07-16T23:33:37.519Z,67.04
2023-07-16T23:38:39.118Z,69.73
2023-07-16T23:43:40.821Z,69.12
2023-07-16T23:48:42.287Z,69.70
2023-07-16T23:53:43.909Z,69.61
2023-07-16T23:58:51.505Z,70.17
